sensor_id;sensor_type;location;lat;lon;timestamp;pressure;altitude;pressure_sealevel;temperature;humidity
19748;BME280;10032;51.386;12.516;2023-02-18T00:02:12;100470.28;;;9.95;100.00
19748;BME280;10032;51.386;12.516;2023-02-18T00:04:37;100474.28;;;9.92;100.00
19748;BME280;10032;51.386;12.516;2023-02-18T00:07:03;100474.66;;;9.84;100.00
19748;BME280;10032;51.386;12.516;2023-02-18T00:09:28;100485.94;;;9.81;100.00
19748;BME280;10032;51.386;12.516;2023-02-18T00:11:54;100468.75;;;9.76;100.00
19748;BME280;10032;51.386;12.516;2023-02-18T00:14:19;100483.00;;;9.71;100.00
19748;BME280;10032;51.386;12.516;2023-02-18T00:16:45;100498.88;;;9.68;100.00
19748;BME280;10032;51.386;12.516;2023-02-18T00:19:14;100483.94;;;9.65;100.00
19748;BME280;10032;51.386;12.516;2023-02-18T00:21:40;100481.13;;;9.60;100.00
19748;BME280;10032;51.386;12.516;2023-02-18T00:24:06;100478.41;;;9.60;100.00
19748;BME280;10032;51.386;12.516;2023-02-18T00:26:33;100483.59;;;9.62;100.00
19748;BME280;10032;51.386;12.516;2023-02-18T00:28:59;100484.78;;;9.54;100.00
19748;BME280;10032;51.386;12.516;2023-02-18T00:31:30;100474.28;;;9.46;100.00
19748;BME280;10032;51.386;12.516;2023-02-18T00:33:57;100499.69;;;9.45;100.00
19748;BME280;10032;51.386;12.516;2023-02-18T00:36:24;100478.06;;;9.45;100.00
19748;BME280;10032;51.386;12.516;2023-02-18T00:38:52;100490.38;;;9.41;100.00
19748;BME280;10032;51.386;12.516;2023-02-18T00:41:20;100482.75;;;9.38;100.00
19748;BME280;10032;51.386;12.516;2023-02-18T00:43:46;100486.03;;;9.40;100.00
19748;BME280;10032;51.386;12.516;2023-02-18T00:46:12;100486.53;;;9.37;100.00
19748;BME280;10032;51.386;12.516;2023-02-18T00:48:38;100497.34;;;9.37;100.00
19748;BME280;10032;51.386;12.516;2023-02-18T00:51:04;100488.16;;;9.38;100.00
19748;BME280;10032;51.386;12.516;2023-02-18T00:53:30;100474.88;;;9.37;100.00
19748;BME280;10032;51.386;12.516;2023-02-18T00:55:55;100478.28;;;9.32;100.00
19748;BME280;10032;51.386;12.516;2023-02-18T00:58:21;100478.88;;;9.34;100.00
19748;BME280;10032;51.386;12.516;2023-02-18T01:00:47;100481.22;;;9.31;100.00
19748;BME280;10032;51.386;12.516;2023-02-18T01:03:13;100482.97;;;9.25;100.00
19748;BME280;10032;51.386;12.516;2023-02-18T01:05:40;100477.56;;;9.25;100.00
19748;BME280;10032;51.386;12.516;2023-02-18T01:08:07;100485.44;;;9.27;100.00
19748;BME280;10032;51.386;12.516;2023-02-18T01:10:34;100488.84;;;9.22;100.00
19748;BME280;10032;51.386;12.516;2023-02-18T01:13:00;100482.38;;;9.23;100.00
19748;BME280;10032;51.386;12.516;2023-02-18T01:15:25;100477.28;;;9.15;100.00
19748;BME280;10032;51.386;12.516;2023-02-18T01:17:51;100480.47;;;9.12;100.00
19748;BME280;10032;51.386;12.516;2023-02-18T01:20:17;100476.13;;;9.11;100.00
19748;BME280;10032;51.386;12.516;2023-02-18T01:22:43;100478.22;;;9.09;100.00
19748;BME280;10032;51.386;12.516;2023-02-18T01:25:09;100467.06;;;9.06;100.00
19748;BME280;10032;51.386;12.516;2023-02-18T01:27:35;100471.66;;;9.05;100.00
19748;BME280;10032;51.386;12.516;2023-02-18T01:30:05;100473.75;;;9.03;100.00
19748;BME280;10032;51.386;12.516;2023-02-18T01:32:31;100475.88;;;9.01;100.00
19748;BME280;10032;51.386;12.516;2023-02-18T01:34:59;100485.50;;;8.97;100.00
19748;BME280;10032;51.386;12.516;2023-02-18T01:37:25;100476.31;;;8.98;100.00
19748;BME280;10032;51.386;12.516;2023-02-18T01:39:51;100477.59;;;8.96;100.00
19748;BME280;10032;51.386;12.516;2023-02-18T01:42:25;100479.25;;;8.97;100.00
19748;BME280;10032;51.386;12.516;2023-02-18T01:44:51;100481.16;;;8.96;100.00
19748;BME280;10032;51.386;12.516;2023-02-18T01:47:18;100484.22;;;9.00;100.00
19748;BME280;10032;51.386;12.516;2023-02-18T01:49:46;100481.88;;;9.03;100.00
19748;BME280;10032;51.386;12.516;2023-02-18T01:52:17;100483.75;;;9.03;100.00
19748;BME280;10032;51.386;12.516;2023-02-18T01:54:47;100501.63;;;9.04;100.00
19748;BME280;10032;51.386;12.516;2023-02-18T01:57:17;100501.97;;;9.07;100.00
19748;BME280;10032;51.386;12.516;2023-02-18T01:59:49;100500.34;;;9.06;100.00
19748;BME280;10032;51.386;12.516;2023-02-18T02:02:19;100487.41;;;9.08;100.00
19748;BME280;10032;51.386;12.516;2023-02-18T02:04:45;100486.94;;;9.11;100.00
19748;BME280;10032;51.386;12.516;2023-02-18T02:07:11;100486.94;;;9.11;100.00
19748;BME280;10032;51.386;12.516;2023-02-18T02:09:38;100498.13;;;9.15;100.00
19748;BME280;10032;51.386;12.516;2023-02-18T02:18:16;100507.63;;;9.17;100.00
19748;BME280;10032;51.386;12.516;2023-02-18T02:46:27;100494.03;;;9.24;100.00
19748;BME280;10032;51.386;12.516;2023-02-18T02:49:46;100499.19;;;9.25;100.00
19748;BME280;10032;51.386;12.516;2023-02-18T02:52:08;100493.78;;;9.25;100.00
19748;BME280;10032;51.386;12.516;2023-02-18T02:54:36;100475.91;;;9.24;100.00
19748;BME280;10032;51.386;12.516;2023-02-18T02:59:35;100482.28;;;9.30;100.00
19748;BME280;10032;51.386;12.516;2023-02-18T03:02:46;100471.22;;;9.31;100.00
19748;BME280;10032;51.386;12.516;2023-02-18T03:18:51;100453.59;;;9.40;100.00
19748;BME280;10032;51.386;12.516;2023-02-18T03:21:29;100462.88;;;9.44;100.00
19748;BME280;10032;51.386;12.516;2023-02-18T03:27:18;100459.00;;;9.40;100.00
19748;BME280;10032;51.386;12.516;2023-02-18T03:29:45;100462.88;;;9.44;100.00
19748;BME280;10032;51.386;12.516;2023-02-18T03:32:15;100455.63;;;9.45;100.00
19748;BME280;10032;51.386;12.516;2023-02-18T03:34:48;100459.34;;;9.44;100.00
19748;BME280;10032;51.386;12.516;2023-02-18T03:37:14;100463.94;;;9.43;100.00
19748;BME280;10032;51.386;12.516;2023-02-18T03:39:43;100463.94;;;9.43;100.00
19748;BME280;10032;51.386;12.516;2023-02-18T03:42:10;100455.22;;;9.41;100.00
19748;BME280;10032;51.386;12.516;2023-02-18T03:44:35;100453.13;;;9.43;100.00
19748;BME280;10032;51.386;12.516;2023-02-18T03:47:01;100465.59;;;9.44;100.00
19748;BME280;10032;51.386;12.516;2023-02-18T03:49:26;100465.38;;;9.46;100.00
19748;BME280;10032;51.386;12.516;2023-02-18T03:51:52;100455.97;;;9.48;100.00
19748;BME280;10032;51.386;12.516;2023-02-18T03:54:17;100452.41;;;9.48;100.00
19748;BME280;10032;51.386;12.516;2023-02-18T03:56:43;100451.34;;;9.49;100.00
19748;BME280;10032;51.386;12.516;2023-02-18T03:59:09;100440.81;;;9.47;100.00
19748;BME280;10032;51.386;12.516;2023-02-18T04:01:35;100447.25;;;9.46;100.00
19748;BME280;10032;51.386;12.516;2023-02-18T04:04:01;100445.59;;;9.45;100.00
19748;BME280;10032;51.386;12.516;2023-02-18T04:06:27;100452.41;;;9.48;100.00
19748;BME280;10032;51.386;12.516;2023-02-18T04:08:52;100439.72;;;9.48;100.00
19748;BME280;10032;51.386;12.516;2023-02-18T04:11:18;100437.59;;;9.50;100.00
19748;BME280;10032;51.386;12.516;2023-02-18T04:13:43;100435.97;;;9.49;100.00
19748;BME280;10032;51.386;12.516;2023-02-18T04:16:09;100455.13;;;9.48;100.00
19748;BME280;10032;51.386;12.516;2023-02-18T04:18:34;100453.84;;;9.50;100.00
19748;BME280;10032;51.386;12.516;2023-02-18T04:21:00;100445.00;;;9.55;100.00
19748;BME280;10032;51.386;12.516;2023-02-18T04:23:25;100467.81;;;9.59;100.00
19748;BME280;10032;51.386;12.516;2023-02-18T04:25:50;100462.41;;;9.59;100.00
19748;BME280;10032;51.386;12.516;2023-02-18T04:28:16;100470.75;;;9.57;100.00
19748;BME280;10032;51.386;12.516;2023-02-18T04:30:43;100468.66;;;9.59;100.00
19748;BME280;10032;51.386;12.516;2023-02-18T04:33:09;100466.88;;;9.65;100.00
19748;BME280;10032;51.386;12.516;2023-02-18T04:35:34;100462.75;;;9.62;100.00
19748;BME280;10032;51.386;12.516;2023-02-18T04:38:01;100457.97;;;9.64;100.00
19748;BME280;10032;51.386;12.516;2023-02-18T04:40:27;100450.66;;;9.65;100.00
19748;BME280;10032;51.386;12.516;2023-02-18T04:42:56;100448.19;;;9.63;100.00
19748;BME280;10032;51.386;12.516;2023-02-18T04:45:22;100437.72;;;9.67;100.00
19748;BME280;10032;51.386;12.516;2023-02-18T04:47:48;100442.06;;;9.68;100.00
19748;BME280;10032;51.386;12.516;2023-02-18T04:50:13;100426.06;;;9.66;100.00
19748;BME280;10032;51.386;12.516;2023-02-18T04:52:38;100427.59;;;9.62;100.00
19748;BME280;10032;51.386;12.516;2023-02-18T04:55:04;100422.78;;;9.64;100.00
19748;BME280;10032;51.386;12.516;2023-02-18T04:57:30;100416.53;;;9.64;100.00
19748;BME280;10032;51.386;12.516;2023-02-18T04:59:55;100421.16;;;9.63;100.00
19748;BME280;10032;51.386;12.516;2023-02-18T05:02:20;100419.25;;;9.64;100.00
19748;BME280;10032;51.386;12.516;2023-02-18T05:04:46;100416.09;;;9.67;100.00
19748;BME280;10032;51.386;12.516;2023-02-18T05:07:11;100413.13;;;9.68;100.00
19748;BME280;10032;51.386;12.516;2023-02-18T05:09:37;100402.28;;;9.68;100.00
19748;BME280;10032;51.386;12.516;2023-02-18T05:12:02;100407.25;;;9.71;100.00
19748;BME280;10032;51.386;12.516;2023-02-18T05:14:28;100396.09;;;9.68;100.00
19748;BME280;10032;51.386;12.516;2023-02-18T05:16:53;100383.97;;;9.70;100.00
19748;BME280;10032;51.386;12.516;2023-02-18T05:19:18;100380.19;;;9.71;100.00
19748;BME280;10032;51.386;12.516;2023-02-18T05:21:44;100372.06;;;9.71;100.00
19748;BME280;10032;51.386;12.516;2023-02-18T05:24:09;100368.91;;;9.74;100.00
19748;BME280;10032;51.386;12.516;2023-02-18T05:26:35;100369.47;;;9.76;100.00
19748;BME280;10032;51.386;12.516;2023-02-18T05:29:00;100365.13;;;9.75;100.00
19748;BME280;10032;51.386;12.516;2023-02-18T05:31:26;100359.13;;;9.73;100.00
19748;BME280;10032;51.386;12.516;2023-02-18T05:33:52;100348.06;;;9.75;100.00
19748;BME280;10032;51.386;12.516;2023-02-18T05:36:17;100345.13;;;9.76;100.00
19748;BME280;10032;51.386;12.516;2023-02-18T05:38:42;100340.56;;;9.77;100.00
19748;BME280;10032;51.386;12.516;2023-02-18T05:41:08;100345.97;;;9.77;100.00
19748;BME280;10032;51.386;12.516;2023-02-18T05:43:33;100338.41;;;9.79;100.00
19748;BME280;10032;51.386;12.516;2023-02-18T05:46:19;100337.13;;;9.81;100.00
19748;BME280;10032;51.386;12.516;2023-02-18T05:48:45;100335.47;;;9.80;100.00
19748;BME280;10032;51.386;12.516;2023-02-18T05:51:10;100336.66;;;9.84;100.00
19748;BME280;10032;51.386;12.516;2023-02-18T05:53:36;100333.09;;;9.84;100.00
19748;BME280;10032;51.386;12.516;2023-02-18T05:56:01;100334.19;;;9.83;100.00
19748;BME280;10032;51.386;12.516;2023-02-18T05:58:26;100332.28;;;9.83;100.00
19748;BME280;10032;51.386;12.516;2023-02-18T06:00:52;100342.06;;;9.84;100.00
19748;BME280;10032;51.386;12.516;2023-02-18T06:03:17;100335.47;;;9.80;100.00
19748;BME280;10032;51.386;12.516;2023-02-18T06:05:43;100335.81;;;9.84;100.00
19748;BME280;10032;51.386;12.516;2023-02-18T06:08:08;100332.53;;;9.82;100.00
19748;BME280;10032;51.386;12.516;2023-02-18T06:10:33;100329.56;;;9.83;100.00
19748;BME280;10032;51.386;12.516;2023-02-18T06:12:59;100337.13;;;9.81;100.00
19748;BME280;10032;51.386;12.516;2023-02-18T06:15:26;100333.00;;;9.79;100.00
19748;BME280;10032;51.386;12.516;2023-02-18T06:17:52;100331.72;;;9.81;100.00
19748;BME280;10032;51.386;12.516;2023-02-18T06:20:17;100325.47;;;9.81;100.00
19748;BME280;10032;51.386;12.516;2023-02-18T06:22:42;100326.28;;;9.81;100.00
19748;BME280;10032;51.386;12.516;2023-02-18T06:25:08;100327.81;;;9.77;100.00
19748;BME280;10032;51.386;12.516;2023-02-18T06:27:33;100331.59;;;9.76;100.00
19748;BME280;10032;51.386;12.516;2023-02-18T06:29:59;100322.66;;;9.76;100.00
19748;BME280;10032;51.386;12.516;2023-02-18T06:32:24;100317.59;;;9.79;100.00
19748;BME280;10032;51.386;12.516;2023-02-18T06:34:49;100307.94;;;9.83;100.00
19748;BME280;10032;51.386;12.516;2023-02-18T06:37:15;100312.53;;;9.83;100.00
19748;BME280;10032;51.386;12.516;2023-02-18T06:39:40;100310.63;;;9.83;100.00
19748;BME280;10032;51.386;12.516;2023-02-18T06:42:06;100307.94;;;9.83;100.00
19748;BME280;10032;51.386;12.516;2023-02-18T06:44:31;100304.19;;;9.84;100.00
19748;BME280;10032;51.386;12.516;2023-02-18T06:46:56;100292.28;;;9.85;100.00
19748;BME280;10032;51.386;12.516;2023-02-18T06:49:22;100300.41;;;9.85;100.00
19748;BME280;10032;51.386;12.516;2023-02-18T06:51:47;100294.16;;;9.85;100.00
19748;BME280;10032;51.386;12.516;2023-02-18T06:54:13;100280.63;;;9.85;100.00
19748;BME280;10032;51.386;12.516;2023-02-18T06:56:38;100276.06;;;9.85;100.00
19748;BME280;10032;51.386;12.516;2023-02-18T06:59:03;100289.09;;;9.88;100.00
19748;BME280;10032;51.386;12.516;2023-02-18T07:01:29;100262.84;;;9.89;100.00
19748;BME280;10032;51.386;12.516;2023-02-18T07:03:54;100262.84;;;9.89;100.00
19748;BME280;10032;51.386;12.516;2023-02-18T07:06:20;100246.63;;;9.89;100.00
19748;BME280;10032;51.386;12.516;2023-02-18T07:08:45;100256.03;;;9.86;100.00
19748;BME280;10032;51.386;12.516;2023-02-18T07:11:11;100250.13;;;9.89;100.00
19748;BME280;10032;51.386;12.516;2023-02-18T07:13:36;100235.19;;;9.87;100.00
19748;BME280;10032;51.386;12.516;2023-02-18T07:16:01;100239.91;;;9.91;100.00
19748;BME280;10032;51.386;12.516;2023-02-18T07:18:27;100232.34;;;9.93;100.00
19748;BME280;10032;51.386;12.516;2023-02-18T07:20:52;100237.75;;;9.93;100.00
19748;BME280;10032;51.386;12.516;2023-02-18T07:23:18;100231.88;;;9.96;100.00
19748;BME280;10032;51.386;12.516;2023-02-18T07:25:43;100225.16;;;9.99;100.00
19748;BME280;10032;51.386;12.516;2023-02-18T07:28:09;100222.31;;;10.05;100.00
19748;BME280;10032;51.386;12.516;2023-02-18T07:30:34;100226.16;;;10.09;100.00
19748;BME280;10032;51.386;12.516;2023-02-18T07:33:00;100220.28;;;10.12;100.00
19748;BME280;10032;51.386;12.516;2023-02-18T07:35:25;100216.50;;;10.13;100.00
19748;BME280;10032;51.386;12.516;2023-02-18T07:37:50;100214.34;;;10.15;100.00
19748;BME280;10032;51.386;12.516;2023-02-18T07:40:19;100208.47;;;10.18;100.00
19748;BME280;10032;51.386;12.516;2023-02-18T07:42:44;100208.22;;;10.20;100.00
19748;BME280;10032;51.386;12.516;2023-02-18T07:45:10;100206.31;;;10.20;100.00
19748;BME280;10032;51.386;12.516;2023-02-18T07:47:36;100203.38;;;10.22;100.00
19748;BME280;10032;51.386;12.516;2023-02-18T07:50:03;100198.19;;;10.20;100.00
19748;BME280;10032;51.386;12.516;2023-02-18T07:52:29;100192.31;;;10.23;100.00
19748;BME280;10032;51.386;12.516;2023-02-18T07:54:54;100184.75;;;10.25;100.00
19748;BME280;10032;51.386;12.516;2023-02-18T07:57:19;100178.84;;;10.28;100.00
19748;BME280;10032;51.386;12.516;2023-02-18T07:59:45;100182.03;;;10.25;100.00
19748;BME280;10032;51.386;12.516;2023-02-18T08:02:19;100183.19;;;10.29;100.00
19748;BME280;10032;51.386;12.516;2023-02-18T08:04:46;100174.00;;;10.30;100.00
19748;BME280;10032;51.386;12.516;2023-02-18T08:07:17;100180.00;;;10.32;100.00
19748;BME280;10032;51.386;12.516;2023-02-18T08:09:43;100173.50;;;10.33;100.00
19748;BME280;10032;51.386;12.516;2023-02-18T08:12:08;100163.84;;;10.37;100.00
19748;BME280;10032;51.386;12.516;2023-02-18T08:14:36;100165.22;;;10.40;100.00
19748;BME280;10032;51.386;12.516;2023-02-18T08:17:02;100158.97;;;10.39;100.00
19748;BME280;10032;51.386;12.516;2023-02-18T08:19:27;100156.34;;;10.44;100.00
19748;BME280;10032;51.386;12.516;2023-02-18T08:21:53;100148.72;;;10.41;100.00
19748;BME280;10032;51.386;12.516;2023-02-18T08:24:18;100147.41;;;10.44;100.00
19748;BME280;10032;51.386;12.516;2023-02-18T08:26:43;100140.91;;;10.45;100.00
19748;BME280;10032;51.386;12.516;2023-02-18T08:29:09;100131.47;;;10.47;100.00
19748;BME280;10032;51.386;12.516;2023-02-18T08:31:34;100137.53;;;10.54;100.00
19748;BME280;10032;51.386;12.516;2023-02-18T08:34:01;100132.44;;;10.58;100.00
19748;BME280;10032;51.386;12.516;2023-02-18T08:36:27;100128.41;;;10.60;100.00
19748;BME280;10032;51.386;12.516;2023-02-18T08:38:53;100123.56;;;10.62;100.00
19748;BME280;10032;51.386;12.516;2023-02-18T08:41:19;100121.50;;;10.69;100.00
19748;BME280;10032;51.386;12.516;2023-02-18T08:43:45;100122.38;;;10.75;100.00
19748;BME280;10032;51.386;12.516;2023-02-18T08:46:11;100125.97;;;10.80;100.00
19748;BME280;10032;51.386;12.516;2023-02-18T08:48:36;100120.63;;;10.85;100.00
19748;BME280;10032;51.386;12.516;2023-02-18T08:51:19;100111.47;;;10.91;100.00
19748;BME280;10032;51.386;12.516;2023-02-18T08:53:45;100111.28;;;10.98;100.00
19748;BME280;10032;51.386;12.516;2023-02-18T08:56:12;100098.09;;;11.06;100.00
19748;BME280;10032;51.386;12.516;2023-02-18T08:58:39;100102.50;;;11.12;100.00
19748;BME280;10032;51.386;12.516;2023-02-18T09:01:06;100094.44;;;11.17;100.00
19748;BME280;10032;51.386;12.516;2023-02-18T09:03:33;100092.88;;;11.26;100.00
19748;BME280;10032;51.386;12.516;2023-02-18T09:05:59;100090.22;;;11.31;100.00
19748;BME280;10032;51.386;12.516;2023-02-18T09:08:26;100085.94;;;11.35;100.00
19748;BME280;10032;51.386;12.516;2023-02-18T09:10:59;100078.69;;;11.41;100.00
19748;BME280;10032;51.386;12.516;2023-02-18T09:13:26;100070.59;;;11.46;100.00
19748;BME280;10032;51.386;12.516;2023-02-18T09:18:22;100070.09;;;11.54;100.00
19748;BME280;10032;51.386;12.516;2023-02-18T09:20:47;100072.31;;;11.57;100.00
19748;BME280;10032;51.386;12.516;2023-02-18T09:23:13;100073.13;;;11.57;100.00
19748;BME280;10032;51.386;12.516;2023-02-18T09:25:39;100072.66;;;11.60;100.00
19748;BME280;10032;51.386;12.516;2023-02-18T09:28:05;100073.44;;;11.61;100.00
19748;BME280;10032;51.386;12.516;2023-02-18T09:30:30;100061.78;;;11.60;100.00
19748;BME280;10032;51.386;12.516;2023-02-18T09:32:56;100056.91;;;11.62;100.00
19748;BME280;10032;51.386;12.516;2023-02-18T09:35:21;100058.59;;;11.68;100.00
19748;BME280;10032;51.386;12.516;2023-02-18T09:37:47;100048.06;;;11.72;100.00
19748;BME280;10032;51.386;12.516;2023-02-18T09:40:23;100044.03;;;11.79;100.00
19748;BME280;10032;51.386;12.516;2023-02-18T09:42:50;100043.50;;;11.82;100.00
19748;BME280;10032;51.386;12.516;2023-02-18T09:45:15;100034.56;;;11.87;100.00
19748;BME280;10032;51.386;12.516;2023-02-18T09:47:42;100041.66;;;11.88;100.00
19748;BME280;10032;51.386;12.516;2023-02-18T09:50:25;100020.50;;;11.90;100.00
19748;BME280;10032;51.386;12.516;2023-02-18T09:52:51;100017.81;;;11.95;100.00
19748;BME280;10032;51.386;12.516;2023-02-18T09:55:24;100000.72;;;11.99;100.00
19748;BME280;10032;51.386;12.516;2023-02-18T09:58:19;99999.69;;;12.05;100.00
19748;BME280;10032;51.386;12.516;2023-02-18T10:00:48;100002.41;;;12.05;100.00
19748;BME280;10032;51.386;12.516;2023-02-18T10:03:23;99999.72;;;12.10;100.00
19748;BME280;10032;51.386;12.516;2023-02-18T10:05:56;99989.69;;;12.11;100.00
19748;BME280;10032;51.386;12.516;2023-02-18T10:08:43;100000.00;;;12.14;100.00
19748;BME280;10032;51.386;12.516;2023-02-18T10:11:15;99995.94;;;12.16;100.00
19748;BME280;10032;51.386;12.516;2023-02-18T10:13:42;99990.50;;;12.16;100.00
19748;BME280;10032;51.386;12.516;2023-02-18T10:16:09;99981.59;;;12.21;100.00
19748;BME280;10032;51.386;12.516;2023-02-18T10:18:43;99973.47;;;12.26;100.00
19748;BME280;10032;51.386;12.516;2023-02-18T10:21:20;99981.63;;;12.31;100.00
19748;BME280;10032;51.386;12.516;2023-02-18T10:24:11;99960.69;;;12.31;100.00
19748;BME280;10032;51.386;12.516;2023-02-18T10:26:38;99959.63;;;12.37;100.00
19748;BME280;10032;51.386;12.516;2023-02-18T10:29:13;99951.53;;;12.47;100.00
19748;BME280;10032;51.386;12.516;2023-02-18T10:31:43;99966.22;;;12.51;100.00
19748;BME280;10032;51.386;12.516;2023-02-18T10:34:38;99952.66;;;12.56;100.00
19748;BME280;10032;51.386;12.516;2023-02-18T10:43:02;99927.97;;;12.68;100.00
19748;BME280;10032;51.386;12.516;2023-02-18T10:51:07;99912.47;;;12.73;100.00
19748;BME280;10032;51.386;12.516;2023-02-18T10:53:39;99919.81;;;12.78;100.00
19748;BME280;10032;51.386;12.516;2023-02-18T10:56:06;99929.06;;;12.82;100.00
19748;BME280;10032;51.386;12.516;2023-02-18T11:01:02;99928.81;;;12.88;100.00
19748;BME280;10032;51.386;12.516;2023-02-18T11:03:50;99935.34;;;12.87;100.00
19748;BME280;10032;51.386;12.516;2023-02-18T11:08:48;99910.59;;;12.94;100.00
19748;BME280;10032;51.386;12.516;2023-02-18T11:11:23;99913.03;;;12.95;100.00
19748;BME280;10032;51.386;12.516;2023-02-18T11:13:54;99904.38;;;12.98;100.00
19748;BME280;10032;51.386;12.516;2023-02-18T11:16:44;99901.13;;;13.01;100.00
19748;BME280;10032;51.386;12.516;2023-02-18T11:19:39;99912.53;;;12.98;100.00
19748;BME280;10032;51.386;12.516;2023-02-18T11:22:18;99904.38;;;12.98;100.00
19748;BME280;10032;51.386;12.516;2023-02-18T11:24:44;99906.84;;;13.00;100.00
19748;BME280;10032;51.386;12.516;2023-02-18T11:28:03;99906.00;;;13.04;100.00
19748;BME280;10032;51.386;12.516;2023-02-18T11:30:18;99907.63;;;13.05;100.00
19748;BME280;10032;51.386;12.516;2023-02-18T11:32:48;99910.09;;;13.07;100.00
19748;BME280;10032;51.386;12.516;2023-02-18T11:35:23;99895.13;;;13.04;100.00
19748;BME280;10032;51.386;12.516;2023-02-18T11:37:50;99893.22;;;13.00;100.00
19748;BME280;10032;51.386;12.516;2023-02-18T11:40:34;99892.97;;;13.01;100.00
19748;BME280;10032;51.386;12.516;2023-02-18T11:43:06;99886.97;;;13.04;100.00
19748;BME280;10032;51.386;12.516;2023-02-18T11:45:34;99893.22;;;13.00;100.00
19748;BME280;10032;51.386;12.516;2023-02-18T11:48:02;99870.38;;;12.96;100.00
19748;BME280;10032;51.386;12.516;2023-02-18T11:50:32;99869.25;;;12.92;100.00
19748;BME280;10032;51.386;12.516;2023-02-18T11:52:58;99869.25;;;12.92;100.00
19748;BME280;10032;51.386;12.516;2023-02-18T11:55:27;99871.44;;;12.95;100.00
19748;BME280;10032;51.386;12.516;2023-02-18T11:57:57;99879.38;;;12.96;100.00
19748;BME280;10032;51.386;12.516;2023-02-18T12:00:46;99863.56;;;12.98;100.00
19748;BME280;10032;51.386;12.516;2023-02-18T12:06:14;99874.47;;;12.98;100.00
19748;BME280;10032;51.386;12.516;2023-02-18T12:08:48;99873.94;;;13.01;100.00
19748;BME280;10032;51.386;12.516;2023-02-18T12:11:25;99854.88;;;13.01;100.00
19748;BME280;10032;51.386;12.516;2023-02-18T12:13:54;99858.13;;;13.03;100.00
19748;BME280;10032;51.386;12.516;2023-02-18T12:16:35;99861.41;;;13.05;100.00
19748;BME280;10032;51.386;12.516;2023-02-18T12:21:55;99866.84;;;13.15;100.00
19748;BME280;10032;51.386;12.516;2023-02-18T12:27:36;99841.00;;;13.08;100.00
19748;BME280;10032;51.386;12.516;2023-02-18T12:33:03;99828.50;;;13.07;100.00
19748;BME280;10032;51.386;12.516;2023-02-18T12:38:32;99825.50;;;13.08;100.00
19748;BME280;10032;51.386;12.516;2023-02-18T12:46:43;99822.78;;;13.08;100.00
19748;BME280;10032;51.386;12.516;2023-02-18T13:02:51;99842.31;;;12.95;100.00
19748;BME280;10032;51.386;12.516;2023-02-18T13:13:41;99833.13;;;13.01;100.00
19748;BME280;10032;51.386;12.516;2023-02-18T13:16:14;99839.63;;;13.00;100.00
19748;BME280;10032;51.386;12.516;2023-02-18T13:18:46;99828.22;;;12.98;100.00
19748;BME280;10032;51.386;12.516;2023-02-18T13:21:15;99823.06;;;12.97;100.00
19748;BME280;10032;51.386;12.516;2023-02-18T13:23:49;99827.97;;;13.00;100.00
19748;BME280;10032;51.386;12.516;2023-02-18T13:26:17;99833.66;;;13.03;100.00
19748;BME280;10032;51.386;12.516;2023-02-18T13:31:18;99844.53;;;13.08;100.00
19748;BME280;10032;51.386;12.516;2023-02-18T13:34:06;99850.50;;;13.10;100.00
19748;BME280;10032;51.386;12.516;2023-02-18T13:36:47;99852.13;;;13.16;100.00
19748;BME280;10032;51.386;12.516;2023-02-18T13:39:17;99838.00;;;13.09;100.00
19748;BME280;10032;51.386;12.516;2023-02-18T13:41:47;99840.72;;;13.14;100.00
19748;BME280;10032;51.386;12.516;2023-02-18T13:46:52;99840.72;;;13.14;100.00
19748;BME280;10032;51.386;12.516;2023-02-18T13:49:24;99851.59;;;13.19;100.00
19748;BME280;10032;51.386;12.516;2023-02-18T13:51:54;99836.91;;;13.15;100.00
19748;BME280;10032;51.386;12.516;2023-02-18T13:54:31;99836.38;;;13.18;100.00
19748;BME280;10032;51.386;12.516;2023-02-18T13:57:04;99842.06;;;13.22;100.00
19748;BME280;10032;51.386;12.516;2023-02-18T13:59:43;99834.16;;;13.30;100.00
19748;BME280;10032;51.386;12.516;2023-02-18T14:12:37;99855.94;;;13.30;100.00
19748;BME280;10032;51.386;12.516;2023-02-18T14:20:43;99866.56;;;13.07;100.00
19748;BME280;10032;51.386;12.516;2023-02-18T14:26:00;99874.94;;;12.65;100.00
19748;BME280;10032;51.386;12.516;2023-02-18T14:31:34;99868.91;;;12.38;100.00
19748;BME280;10032;51.386;12.516;2023-02-18T14:42:45;99860.78;;;12.43;100.00
19748;BME280;10032;51.386;12.516;2023-02-18T14:50:30;99858.03;;;12.33;100.00
19748;BME280;10032;51.386;12.516;2023-02-18T14:53:03;99851.53;;;12.39;100.00
19748;BME280;10032;51.386;12.516;2023-02-18T14:55:33;99853.16;;;12.45;100.00
19748;BME280;10032;51.386;12.516;2023-02-18T14:58:02;99892.28;;;12.39;100.00
19748;BME280;10032;51.386;12.516;2023-02-18T15:00:31;99875.16;;;12.39;100.00
19748;BME280;10032;51.386;12.516;2023-02-18T15:02:59;99883.03;;;12.40;100.00
19748;BME280;10032;51.386;12.516;2023-02-18T15:05:28;99881.94;;;12.36;100.00
19748;BME280;10032;51.386;12.516;2023-02-18T15:13:01;99901.53;;;12.38;100.00
19748;BME280;10032;51.386;12.516;2023-02-18T15:15:27;99900.41;;;12.34;100.00
19748;BME280;10032;51.386;12.516;2023-02-18T15:17:52;99916.72;;;12.34;100.00
19748;BME280;10032;51.386;12.516;2023-02-18T15:20:18;99906.66;;;12.25;100.00
19748;BME280;10032;51.386;12.516;2023-02-18T15:22:43;99917.50;;;12.25;100.00
19748;BME280;10032;51.386;12.516;2023-02-18T15:25:12;99899.28;;;12.20;100.00